Time;durP1;ratioP1;P1;durP2;ratioP2;P2;SDS_P1;SDS_P2;PMS_P1;PMS_P2;Temp;Humidity;BMP_temperature;BMP_pressure;BME280_temperature;BME280_humidity;BME280_pressure;Samples;Min_cycle;Max_cycle;Signal;HPM_P1;HPM_P2
2023/06/22 00:00:33;;;;;;;4.03;3.20;;;23.90;76.90;;;;;;5093449;28;20520;-40
2023/06/22 00:03:01;;;;;;;3.45;2.90;;;24.00;62.00;;;;;;5093100;28;20108;-33
2023/06/22 00:05:28;;;;;;;3.75;2.90;;;;;;;;;;5093459;28;20044;-36
2023/06/22 00:07:55;;;;;;;3.40;2.95;;;23.20;76.90;;;;;;5092772;28;20062;-40
2023/06/22 00:10:22;;;;;;;4.63;2.88;;;23.10;76.40;;;;;;5093559;28;20468;-40
2023/06/22 00:12:49;;;;;;;3.88;2.70;;;23.90;64.30;;;;;;5092940;28;20127;-40
2023/06/22 00:15:15;;;;;;;3.90;3.10;;;24.10;76.50;;;;;;5093045;28;20496;-40
2023/06/22 00:17:42;;;;;;;3.13;2.75;;;24.10;71.80;;;;;;5093145;28;20047;-40
2023/06/22 00:20:11;;;;;;;4.00;3.15;;;23.90;61.90;;;;;;5092878;28;20131;-36
2023/06/22 00:22:38;;;;;;;3.22;2.80;;;23.70;76.30;;;;;;5092427;28;20044;-41
2023/06/22 00:25:07;;;;;;;4.25;3.00;;;23.90;65.10;;;;;;5093164;28;20056;-39
2023/06/22 00:27:34;;;;;;;4.22;3.15;;;23.30;76.40;;;;;;5092763;28;20139;-40
2023/06/22 00:30:00;;;;;;;5.18;2.92;;;23.60;77.10;;;;;;5092892;28;20123;-41
2023/06/22 00:32:27;;;;;;;4.18;3.20;;;;;;;;;;5092753;28;20070;-37
2023/06/22 00:34:54;;;;;;;3.75;2.88;;;23.90;77.20;;;;;;5092852;28;20131;-41
2023/06/22 00:37:25;;;;;;;3.30;3.00;;;23.90;61.80;;;;;;5091153;28;20082;-37
2023/06/22 00:39:52;;;;;;;3.85;3.20;;;24.00;76.70;;;;;;5092805;28;20048;-40
2023/06/22 00:42:19;;;;;;;3.90;3.20;;;23.80;76.40;;;;;;5092524;28;20044;-39
2023/06/22 00:44:46;;;;;;;3.30;2.80;;;;;;;;;;5092619;28;20131;-37
2023/06/22 00:47:13;;;;;;;4.00;3.25;;;;;;;;;;5092338;28;20048;-40
2023/06/22 00:49:40;;;;;;;3.47;3.05;;;24.70;70.90;;;;;;5093037;28;20059;-40
2023/06/22 00:52:09;;;;;;;3.95;3.20;;;23.80;76.70;;;;;;5079960;28;20088;-40
2023/06/22 00:54:37;;;;;;;3.58;3.10;;;24.20;77.00;;;;;;5085905;28;20086;-40
2023/06/22 00:57:04;;;;;;;2.90;2.60;;;;;;;;;;5092501;28;20076;-41
2023/06/22 00:59:32;;;;;;;3.55;3.05;;;23.80;68.50;;;;;;5092120;28;20077;-40
2023/06/22 01:02:00;;;;;;;3.42;3.13;;;24.40;77.30;;;;;;5092645;28;20072;-41
2023/06/22 01:04:35;;;;;;;5.28;3.50;;;23.00;74.40;;;;;;5092047;28;20055;-38
2023/06/22 01:07:06;;;;;;;3.88;2.95;;;23.60;76.30;;;;;;5091841;28;20412;-41
2023/06/22 01:09:35;;;;;;;4.20;3.30;;;23.60;76.20;;;;;;5092173;28;20134;-40
2023/06/22 01:12:05;;;;;;;3.83;3.20;;;23.80;61.80;;;;;;5092062;28;20131;-35
2023/06/22 01:14:34;;;;;;;3.85;3.17;;;24.30;77.00;;;;;;5092161;28;20127;-32
2023/06/22 01:17:01;;;;;;;3.38;3.08;;;24.20;73.90;;;;;;5092321;28;20123;-35
2023/06/22 01:19:36;;;;;;;3.50;2.95;;;24.10;76.50;;;;;;5091605;28;20461;-33
2023/06/22 01:22:03;;;;;;;3.67;3.10;;;;;;;;;;5091581;28;20059;-34
2023/06/22 01:24:35;;;;;;;3.65;3.22;;;24.20;77.40;;;;;;5092193;28;20097;-32
2023/06/22 01:27:10;;;;;;;4.72;3.17;;;24.80;76.90;;;;;;5091996;28;20093;-34
2023/06/22 01:29:38;;;;;;;3.42;3.03;;;22.70;62.40;;;;;;5092289;28;20052;-35
2023/06/22 01:32:06;;;;;;;4.00;3.22;;;23.70;61.90;;;;;;5090968;28;20564;-34
2023/06/22 01:34:32;;;;;;;4.47;3.25;;;24.10;77.30;;;;;;5091433;28;20074;-32
2023/06/22 01:36:59;;;;;;;3.22;2.92;;;23.60;67.90;;;;;;5091283;28;20048;-32
2023/06/22 01:39:26;;;;;;;3.97;3.33;;;23.80;61.70;;;;;;5091761;28;20047;-31
2023/06/22 01:41:53;;;;;;;5.05;3.25;;;;;;;;;;5091946;28;20504;-35
2023/06/22 01:44:21;;;;;;;3.90;3.28;;;22.80;64.70;;;;;;5091339;28;20489;-35
2023/06/22 01:46:49;;;;;;;4.22;3.22;;;23.80;76.80;;;;;;5090800;28;20602;-31
2023/06/22 01:49:16;;;;;;;3.88;3.28;;;24.60;76.70;;;;;;5091523;28;20290;-32
2023/06/22 01:51:43;;;;;;;3.40;3.08;;;23.80;68.40;;;;;;5091992;28;20139;-32
2023/06/22 01:54:10;;;;;;;3.60;3.08;;;23.60;66.30;;;;;;5091739;28;20237;-32
2023/06/22 01:56:36;;;;;;;3.92;3.15;;;24.10;76.70;;;;;;5091714;28;20051;-32
2023/06/22 01:59:07;;;;;;;4.20;3.55;;;24.30;77.40;;;;;;5091779;28;20408;-31
2023/06/22 02:01:43;;;;;;;3.80;3.10;;;23.70;61.60;;;;;;5090594;28;20752;-34
2023/06/22 02:04:13;;;;;;;3.45;3.15;;;23.80;64.00;;;;;;5091244;28;20127;-35
2023/06/22 02:06:41;;;;;;;3.95;3.22;;;23.60;69.40;;;;;;5094950;28;20405;-32
2023/06/22 02:09:09;;;;;;;3.45;3.00;;;23.70;61.60;;;;;;5095785;28;20075;-34
2023/06/22 02:11:36;;;;;;;4.43;3.03;;;;;;;;;;5095491;28;20098;-34
2023/06/22 02:14:03;;;;;;;4.47;3.17;;;24.20;76.80;;;;;;5095263;28;20048;-32
2023/06/22 02:16:31;;;;;;;3.30;2.88;;;;;;;;;;5094649;28;20058;-31
2023/06/22 02:19:03;;;;;;;3.88;3.10;;;;;;;;;;5095661;28;20044;-32
2023/06/22 02:21:31;;;;;;;3.80;2.97;;;23.50;76.10;;;;;;5095285;28;20576;-33
2023/06/22 02:23:57;;;;;;;3.50;3.03;;;24.20;77.30;;;;;;5095541;28;20404;-32
2023/06/22 02:26:24;;;;;;;3.78;3.22;;;24.00;76.30;;;;;;5095436;28;20063;-31
2023/06/22 02:28:51;;;;;;;3.40;3.03;;;24.20;77.20;;;;;;5095337;28;20044;-34
2023/06/22 02:31:18;;;;;;;3.28;2.70;;;23.70;75.90;;;;;;5080535;28;20139;-34
2023/06/22 02:33:45;;;;;;;3.22;2.92;;;;;;;;;;5074867;28;20128;-36
2023/06/22 02:36:13;;;;;;;3.90;3.17;;;23.50;76.10;;;;;;5077543;28;20127;-31
2023/06/22 02:38:48;;;;;;;3.40;2.90;;;24.60;76.20;;;;;;5095270;28;20040;-32
2023/06/22 02:41:17;;;;;;;3.40;3.00;;;23.20;61.20;;;;;;5094953;28;20048;-34
2023/06/22 02:43:45;;;;;;;3.75;2.90;;;23.60;76.60;;;;;;5094656;28;20059;-32
2023/06/22 02:46:12;;;;;;;4.35;3.05;;;24.10;66.90;;;;;;5093932;28;20052;-32
2023/06/22 02:48:39;;;;;;;3.20;2.90;;;;;;;;;;5095015;28;20119;-35
2023/06/22 02:51:06;;;;;;;3.58;3.10;;;23.90;77.10;;;;;;5095277;28;20147;-31
2023/06/22 02:53:33;;;;;;;4.57;3.13;;;;;;;;;;5094408;28;20117;-35
2023/06/22 02:56:03;;;;;;;3.75;3.35;;;23.30;76.30;;;;;;5094817;28;20131;-32
2023/06/22 02:58:30;;;;;;;3.70;3.15;;;;;;;;;;5093970;28;20040;-35
2023/06/22 03:00:56;;;;;;;3.72;3.03;;;23.70;76.50;;;;;;5094859;28;20058;-32
2023/06/22 03:03:26;;;;;;;3.33;2.75;;;24.30;64.60;;;;;;5094178;28;20594;-32
2023/06/22 03:05:53;;;;;;;3.35;3.05;;;23.20;76.20;;;;;;5094831;28;20052;-33
2023/06/22 03:08:20;;;;;;;3.55;3.17;;;;;;;;;;5094419;28;20047;-34
2023/06/22 03:10:46;;;;;;;4.75;3.42;;;23.60;65.90;;;;;;5094622;28;20050;-34
2023/06/22 03:13:15;;;;;;;4.60;3.20;;;23.80;71.40;;;;;;5094343;28;20469;-32
2023/06/22 03:15:42;;;;;;;3.45;3.15;;;24.60;76.60;;;;;;5093926;28;20055;-31
2023/06/22 03:18:09;;;;;;;3.97;3.13;;;23.10;75.80;;;;;;5093777;28;20068;-32
2023/06/22 03:20:35;;;;;;;5.45;3.47;;;23.60;76.50;;;;;;5094066;28;20457;-32
2023/06/22 03:23:02;;;;;;;3.65;3.35;;;;;;;;;;5094051;28;20050;-34
2023/06/22 03:25:29;;;;;;;4.55;3.10;;;;;;;;;;5093890;28;20135;-33
2023/06/22 03:27:56;;;;;;;3.58;3.17;;;;;;;;;;5094098;28;20554;-35
2023/06/22 03:30:24;;;;;;;3.33;3.00;;;23.40;75.70;;;;;;5094082;28;20487;-31
2023/06/22 03:32:51;;;;;;;4.30;3.00;;;23.80;76.20;;;;;;5085307;28;20040;-32
2023/06/22 03:35:18;;;;;;;4.28;3.35;;;23.90;76.20;;;;;;5073600;28;20588;-31
2023/06/22 03:37:45;;;;;;;4.25;3.33;;;;;;;;;;5089142;28;20067;-33
2023/06/22 03:40:12;;;;;;;3.78;3.20;;;23.90;76.20;;;;;;5094185;28;20048;-32
2023/06/22 03:42:39;;;;;;;3.67;2.95;;;23.10;74.80;;;;;;5093610;28;20051;-33
2023/06/22 03:45:07;;;;;;;3.70;3.30;;;24.30;77.20;;;;;;5093941;28;20439;-32
2023/06/22 03:47:35;;;;;;;3.92;3.53;;;23.10;76.10;;;;;;5093719;28;20134;-32
2023/06/22 03:50:03;;;;;;;3.50;3.20;;;23.50;76.00;;;;;;5081549;28;20488;-31
2023/06/22 03:52:30;;;;;;;3.88;3.40;;;23.90;77.00;;;;;;5073152;28;20044;-32
2023/06/22 03:54:57;;;;;;;3.85;3.42;;;;;;;;;;5073514;28;20048;-32
2023/06/22 03:57:24;;;;;;;3.78;3.35;;;23.90;67.70;;;;;;5073265;28;20490;-33
2023/06/22 03:59:50;;;;;;;4.20;3.42;;;23.40;76.60;;;;;;5073349;28;20045;-33
2023/06/22 04:02:17;;;;;;;5.47;3.55;;;23.60;75.90;;;;;;5073060;28;20052;-32
2023/06/22 04:04:45;;;;;;;3.58;3.28;;;24.50;69.40;;;;;;5085589;28;20471;-32
2023/06/22 04:07:12;;;;;;;5.22;3.53;;;23.30;70.90;;;;;;5078449;28;20052;-32
2023/06/22 04:09:38;;;;;;;5.53;3.38;;;23.50;71.30;;;;;;5073020;28;20051;-34
2023/06/22 04:12:06;;;;;;;4.55;3.60;;;23.30;65.00;;;;;;5073065;28;20045;-32
2023/06/22 04:14:33;;;;;;;3.63;3.22;;;;;;;;;;5073868;28;20131;-31
2023/06/22 04:17:00;;;;;;;3.90;3.10;;;;;;;;;;5093191;28;20131;-34
2023/06/22 04:19:27;;;;;;;4.40;3.40;;;22.90;74.30;;;;;;5093023;28;20062;-34
2023/06/22 04:21:55;;;;;;;3.45;3.13;;;23.80;76.60;;;;;;5093213;28;20155;-32
2023/06/22 04:24:21;;;;;;;3.72;3.35;;;23.40;76.00;;;;;;5092378;28;20124;-32
2023/06/22 04:26:48;;;;;;;5.72;3.35;;;23.40;65.90;;;;;;5092790;28;20048;-34
2023/06/22 04:29:15;;;;;;;3.88;3.05;;;23.60;65.50;;;;;;5091783;28;20386;-32
2023/06/22 04:31:42;;;;;;;4.40;3.10;;;23.20;76.60;;;;;;5092973;28;20089;-31
2023/06/22 04:34:09;;;;;;;3.38;3.08;;;23.20;69.70;;;;;;5092456;28;20048;-32
2023/06/22 04:36:37;;;;;;;4.18;3.17;;;24.10;76.20;;;;;;5092374;28;20040;-31
2023/06/22 04:39:07;;;;;;;3.63;3.15;;;24.30;76.20;;;;;;5092645;28;20056;-33
2023/06/22 04:41:41;;;;;;;3.47;3.00;;;23.60;76.00;;;;;;5072297;28;20079;-33
2023/06/22 04:44:09;;;;;;;4.00;3.22;;;23.10;75.70;;;;;;5072209;28;20052;-32
2023/06/22 04:46:37;;;;;;;3.72;2.90;;;23.20;75.80;;;;;;5072474;28;20056;-31
2023/06/22 04:49:06;;;;;;;3.90;3.25;;;22.80;76.50;;;;;;5072622;28;20076;-33
2023/06/22 04:51:32;;;;;;;3.10;2.80;;;24.10;77.20;;;;;;5072453;28;20118;-32
2023/06/22 04:54:00;;;;;;;3.33;2.80;;;24.00;73.00;;;;;;5072047;28;20132;-31
2023/06/22 04:56:28;;;;;;;3.97;3.33;;;23.40;61.10;;;;;;5071964;28;20048;-34
2023/06/22 04:58:57;;;;;;;4.55;3.03;;;;;;;;;;5072129;28;20413;-33
2023/06/22 05:01:23;;;;;;;4.28;3.00;;;23.90;65.20;;;;;;5071887;28;20482;-32
2023/06/22 05:03:50;;;;;;;4.90;3.58;;;23.20;76.70;;;;;;5071854;28;20131;-32
2023/06/22 05:06:17;;;;;;;3.47;3.05;;;23.10;75.80;;;;;;5072485;28;20048;-31
2023/06/22 05:08:44;;;;;;;3.95;3.15;;;23.50;76.10;;;;;;5071998;28;20048;-33
2023/06/22 05:11:11;;;;;;;3.60;2.80;;;23.90;77.00;;;;;;5071957;28;20067;-32
2023/06/22 05:13:39;;;;;;;3.55;2.92;;;23.40;61.10;;;;;;5071555;28;20052;-35
2023/06/22 05:16:06;;;;;;;4.03;3.00;;;;;;;;;;5086102;28;20074;-35
2023/06/22 05:18:33;;;;;;;3.83;3.00;;;23.80;68.40;;;;;;5092359;28;20086;-32
2023/06/22 05:21:00;;;;;;;3.50;2.92;;;23.40;75.90;;;;;;5092440;28;20101;-32
2023/06/22 05:23:26;;;;;;;3.90;3.17;;;24.00;75.70;;;;;;5091742;28;20055;-32
2023/06/22 05:25:54;;;;;;;3.63;2.83;;;22.50;75.60;;;;;;5092011;28;20130;-32
2023/06/22 05:28:22;;;;;;;3.20;2.70;;;23.40;76.80;;;;;;5091537;28;20401;-32
2023/06/22 05:30:50;;;;;;;3.75;2.80;;;23.80;77.00;;;;;;5092221;28;20135;-31
2023/06/22 05:33:17;;;;;;;3.70;3.03;;;23.40;76.00;;;;;;5091795;28;20126;-33
2023/06/22 05:35:44;;;;;;;5.15;3.40;;;23.80;77.00;;;;;;5091852;28;20139;-31
2023/06/22 05:38:10;;;;;;;3.97;3.20;;;23.50;66.20;;;;;;5091751;28;20054;-34
2023/06/22 05:40:37;;;;;;;4.18;3.13;;;23.10;71.60;;;;;;5091755;28;20134;-33
2023/06/22 05:43:04;;;;;;;4.10;3.20;;;24.40;76.50;;;;;;5091831;28;20130;-32
2023/06/22 05:45:31;;;;;;;3.15;2.80;;;;;;;;;;5091418;28;20130;-33
2023/06/22 05:47:59;;;;;;;3.80;3.35;;;23.30;76.00;;;;;;5092091;28;20052;-32
2023/06/22 05:50:26;;;;;;;3.45;2.97;;;23.20;76.70;;;;;;5092078;28;20130;-32
2023/06/22 05:52:52;;;;;;;3.53;2.90;;;24.20;76.40;;;;;;5091763;28;20131;-32
2023/06/22 05:55:19;;;;;;;4.55;3.17;;;;;;;;;;5091560;28;20048;-32
2023/06/22 05:57:46;;;;;;;3.67;3.33;;;23.40;76.10;;;;;;5092079;28;20127;-32
2023/06/22 06:00:14;;;;;;;4.75;2.80;;;23.40;61.10;;;;;;5091604;28;20230;-35
2023/06/22 06:02:43;;;;;;;3.65;3.15;;;;;;;;;;5089922;28;20580;-33
2023/06/22 06:05:13;;;;;;;3.10;2.80;;;22.60;75.60;;;;;;5091737;28;20562;-31
2023/06/22 06:07:40;;;;;;;3.58;3.20;;;24.00;76.70;;;;;;5091785;28;20147;-33
2023/06/22 06:10:08;;;;;;;2.97;2.60;;;23.80;76.40;;;;;;5091156;28;20800;-33
2023/06/22 06:12:35;;;;;;;4.22;3.00;;;23.20;65.90;;;;;;5080568;28;20550;-31
2023/06/22 06:15:02;;;;;;;3.58;2.95;;;;;;;;;;5083445;28;20066;-33
2023/06/22 06:17:28;;;;;;;2.78;2.50;;;23.60;76.90;;;;;;5079313;28;20131;-32
2023/06/22 06:19:55;;;;;;;3.35;2.40;;;23.40;76.40;;;;;;5086582;28;20044;-32
2023/06/22 06:22:23;;;;;;;3.50;2.75;;;23.40;61.10;;;;;;5085828;28;20123;-34
2023/06/22 06:24:50;;;;;;;3.80;2.60;;;23.90;64.70;;;;;;5071700;28;20135;-36
2023/06/22 06:27:18;;;;;;;2.67;2.40;;;22.90;76.20;;;;;;5083759;28;20058;-36
2023/06/22 06:29:48;;;;;;;2.92;2.50;;;23.40;76.20;;;;;;5070624;28;20509;-40
2023/06/22 06:32:15;;;;;;;4.05;2.97;;;;;;;;;;5085658;28;20063;-36
2023/06/22 06:34:42;;;;;;;5.13;3.40;;;22.50;75.70;;;;;;5091487;28;20048;-36
2023/06/22 06:37:09;;;;;;;3.00;2.70;;;23.30;76.50;;;;;;5089719;28;20059;-37
2023/06/22 06:39:37;;;;;;;3.28;2.65;;;24.90;62.60;;;;;;5091694;28;20183;-38
2023/06/22 06:42:05;;;;;;;3.20;2.60;;;22.30;75.90;;;;;;5091598;28;20052;-36
2023/06/22 06:44:32;;;;;;;4.45;3.15;;;23.60;76.40;;;;;;5083794;28;20045;-39
2023/06/22 06:46:59;;;;;;;4.13;3.53;;;22.40;65.20;;;;;;5071478;28;20474;-36
2023/06/22 06:49:25;;;;;;;5.05;3.50;;;23.60;76.60;;;;;;5070814;28;20044;-35
2023/06/22 06:51:52;;;;;;;5.22;3.65;;;23.20;76.60;;;;;;5072682;28;20048;-36
2023/06/22 06:54:20;;;;;;;4.55;3.38;;;23.50;62.60;;;;;;5094340;28;20047;-37
2023/06/22 06:56:49;;;;;;;3.47;3.17;;;24.00;66.50;;;;;;5090494;28;20070;-35
2023/06/22 06:59:16;;;;;;;4.20;3.30;;;;;;;;;;5086373;28;20044;-36
2023/06/22 07:01:44;;;;;;;3.33;2.85;;;;;;;;;;5094860;28;20501;-37
2023/06/22 07:04:11;;;;;;;3.90;2.83;;;22.80;76.10;;;;;;5075166;28;20052;-38
2023/06/22 07:06:38;;;;;;;4.22;3.50;;;;;;;;;;5074697;28;20132;-37
2023/06/22 07:09:05;;;;;;;6.15;3.10;;;;;;;;;;5074482;28;20127;-35
2023/06/22 07:11:32;;;;;;;3.60;3.03;;;23.80;76.70;;;;;;5074440;28;20048;-37
2023/06/22 07:14:01;;;;;;;4.78;3.67;;;23.00;76.20;;;;;;5074520;28;20132;-37
2023/06/22 07:16:28;;;;;;;4.95;3.35;;;23.90;64.90;;;;;;5094188;28;20048;-35
2023/06/22 07:18:55;;;;;;;3.30;3.00;;;23.90;77.60;;;;;;5081156;28;20097;-40
2023/06/22 07:21:22;;;;;;;4.82;3.15;;;23.50;73.90;;;;;;5074370;28;20243;-38
2023/06/22 07:23:48;;;;;;;5.22;3.28;;;23.40;76.50;;;;;;5074041;28;20052;-38
2023/06/22 07:26:16;;;;;;;3.95;3.15;;;22.50;76.50;;;;;;5074407;28;20416;-37
2023/06/22 07:28:43;;;;;;;3.83;3.47;;;24.40;77.00;;;;;;5091448;28;20098;-39
2023/06/22 07:31:11;;;;;;;3.92;3.22;;;23.50;61.80;;;;;;5093677;28;20423;-38
2023/06/22 07:33:38;;;;;;;3.65;3.10;;;;;;;;;;5093941;28;20127;-34
2023/06/22 07:36:07;;;;;;;4.72;3.13;;;23.40;76.40;;;;;;5093699;28;20135;-37
2023/06/22 07:38:35;;;;;;;3.50;3.08;;;;;;;;;;5093598;28;20072;-34
2023/06/22 07:41:02;;;;;;;4.40;3.42;;;23.50;76.50;;;;;;5093776;28;20048;-38
2023/06/22 07:43:29;;;;;;;4.82;3.17;;;23.70;74.20;;;;;;5093562;28;20074;-37
2023/06/22 07:45:57;;;;;;;4.28;3.35;;;;;;;;;;5093239;28;20058;-34
2023/06/22 07:48:25;;;;;;;4.13;3.28;;;23.90;77.60;;;;;;5094197;28;20131;-37
2023/06/22 07:50:53;;;;;;;4.28;3.20;;;;;;;;;;5094044;28;20052;-36
2023/06/22 07:53:20;;;;;;;4.90;3.20;;;;;;;;;;5079864;28;20064;-39
2023/06/22 07:55:47;;;;;;;3.72;3.30;;;;;;;;;;5093391;28;20497;-36
2023/06/22 07:58:15;;;;;;;4.28;3.22;;;;;;;;;;5087092;28;20056;-37
2023/06/22 08:00:42;;;;;;;4.45;3.30;;;23.40;76.80;;;;;;5073650;28;20056;-36
2023/06/22 08:03:09;;;;;;;6.13;3.65;;;;;;;;;;5073042;28;20140;-37
2023/06/22 08:05:37;;;;;;;5.40;3.60;;;23.50;77.00;;;;;;5073386;28;20131;-32
2023/06/22 08:08:04;;;;;;;7.03;3.60;;;22.70;71.40;;;;;;5073356;28;20131;-32
2023/06/22 08:10:31;;;;;;;5.57;3.17;;;;;;;;;;5073085;28;20051;-35
2023/06/22 08:12:58;;;;;;;4.15;3.13;;;;;;;;;;5072801;28;20055;-31
2023/06/22 08:15:27;;;;;;;3.03;2.53;;;23.70;62.30;;;;;;5081599;28;20044;-34
2023/06/22 08:17:54;;;;;;;5.22;2.95;;;23.40;77.20;;;;;;5093282;28;20052;-31
2023/06/22 08:20:21;;;;;;;3.92;2.80;;;24.30;77.60;;;;;;5092725;28;20414;-31
2023/06/22 08:22:49;;;;;;;4.10;2.85;;;23.70;62.30;;;;;;5092775;28;20127;-36
2023/06/22 08:25:16;;;;;;;4.05;3.10;;;;;;;;;;5092863;28;20134;-37
2023/06/22 08:27:46;;;;;;;4.20;2.70;;;23.60;77.70;;;;;;5079591;28;20131;-31
2023/06/22 08:30:13;;;;;;;4.20;2.90;;;24.70;77.90;;;;;;5081798;28;20067;-32
2023/06/22 08:32:40;;;;;;;3.65;3.00;;;;;;;;;;5084448;28;20048;-31
2023/06/22 08:35:08;;;;;;;3.40;2.80;;;24.00;77.10;;;;;;5093130;28;20052;-31
2023/06/22 08:37:35;;;;;;;3.63;2.60;;;23.80;75.90;;;;;;5092370;28;20052;-32
2023/06/22 08:40:05;;;;;;;3.38;2.70;;;23.40;76.90;;;;;;5092411;28;20044;-32
2023/06/22 08:42:32;;;;;;;3.35;2.45;;;;;;;;;;5087170;28;20052;-36
2023/06/22 08:44:59;;;;;;;5.22;2.72;;;24.00;77.20;;;;;;5093122;28;20099;-31
2023/06/22 08:47:26;;;;;;;4.95;2.50;;;;;;;;;;5087670;28;20497;-32
2023/06/22 08:49:53;;;;;;;3.80;2.70;;;24.10;77.50;;;;;;5079008;28;20405;-31
2023/06/22 08:52:19;;;;;;;4.28;2.75;;;23.70;77.00;;;;;;5075520;28;20052;-31
2023/06/22 08:54:47;;;;;;;3.65;2.65;;;;;;;;;;5072446;28;20048;-32
2023/06/22 08:57:15;;;;;;;3.50;2.50;;;23.80;77.80;;;;;;5083409;28;20044;-31
2023/06/22 08:59:42;;;;;;;3.20;2.42;;;23.60;76.90;;;;;;5088511;28;20036;-31
2023/06/22 09:02:09;;;;;;;3.40;2.50;;;;;;;;;;5079549;28;20048;-34
2023/06/22 09:04:36;;;;;;;3.08;2.50;;;25.10;77.60;;;;;;5080896;28;20206;-31
2023/06/22 09:07:03;;;;;;;4.75;2.55;;;;;;;;;;5080206;28;20539;-35
2023/06/22 09:09:30;;;;;;;3.10;2.40;;;24.70;77.60;;;;;;5075968;28;20043;-31
2023/06/22 09:11:56;;;;;;;2.95;2.47;;;23.50;76.60;;;;;;5074671;28;20048;-31
2023/06/22 09:14:24;;;;;;;3.28;2.55;;;24.00;62.30;;;;;;5069454;28;20061;-34
2023/06/22 09:16:51;;;;;;;5.95;2.40;;;;;;;;;;5081950;28;20531;-37
2023/06/22 09:19:18;;;;;;;3.08;2.50;;;23.10;76.30;;;;;;5082478;28;20455;-30
2023/06/22 09:21:45;;;;;;;5.40;2.25;;;23.50;77.30;;;;;;5092172;28;20541;-31
2023/06/22 09:24:11;;;;;;;3.80;2.42;;;23.90;67.90;;;;;;5092352;28;20043;-32
2023/06/22 09:26:38;;;;;;;4.05;2.40;;;23.70;76.90;;;;;;5091131;28;20052;-32
2023/06/22 09:29:06;;;;;;;4.63;2.35;;;24.10;76.80;;;;;;5090988;28;20055;-30
2023/06/22 09:31:34;;;;;;;3.13;2.35;;;23.80;76.60;;;;;;5092504;28;20418;-31
2023/06/22 09:34:00;;;;;;;3.20;2.33;;;24.40;68.70;;;;;;5091844;28;20050;-33
2023/06/22 09:36:27;;;;;;;3.08;2.33;;;25.00;77.30;;;;;;5091724;28;20135;-31
2023/06/22 09:38:58;;;;;;;3.97;2.33;;;;;;;;;;5092394;28;20135;-35
2023/06/22 09:41:25;;;;;;;4.35;2.50;;;24.60;77.80;;;;;;5092199;28;20048;-31
2023/06/22 09:43:51;;;;;;;2.50;2.20;;;23.40;76.80;;;;;;5091868;28;20047;-31
2023/06/22 09:46:20;;;;;;;3.05;2.17;;;24.50;65.70;;;;;;5092033;28;20131;-32
2023/06/22 09:48:48;;;;;;;5.10;2.38;;;24.10;62.20;;;;;;5091831;28;20052;-31
2023/06/22 09:51:15;;;;;;;3.53;2.30;;;24.20;73.90;;;;;;5091943;28;20412;-31
2023/06/22 09:53:41;;;;;;;3.90;2.10;;;24.20;76.80;;;;;;5091720;28;20047;-31
2023/06/22 09:56:14;;;;;;;2.85;2.35;;;;;;;;;;5091999;28;20468;-35
2023/06/22 09:58:41;;;;;;;3.42;2.22;;;23.60;70.30;;;;;;5091942;28;20044;-32
2023/06/22 10:01:08;;;;;;;2.30;2.03;;;;;;;;;;5091640;28;20131;-32
2023/06/22 10:03:35;;;;;;;2.33;2.10;;;;;;;;;;5090743;28;20135;-34
2023/06/22 10:06:03;;;;;;;2.30;1.80;;;24.00;76.50;;;;;;5070695;28;20131;-32
2023/06/22 10:08:30;;;;;;;2.35;2.10;;;24.70;77.00;;;;;;5071195;28;20128;-31
2023/06/22 10:10:57;;;;;;;2.58;2.20;;;;;;;;;;5070482;28;20144;-35
2023/06/22 10:13:24;;;;;;;3.28;2.20;;;23.90;76.30;;;;;;5071051;28;20119;-31
2023/06/22 10:15:52;;;;;;;4.57;2.20;;;;;;;;;;5079515;28;20060;-35
2023/06/22 10:18:18;;;;;;;4.18;2.00;;;23.80;76.30;;;;;;5078927;28;20045;-31
2023/06/22 10:20:45;;;;;;;2.65;2.00;;;;;;;;;;5080082;28;20084;-35
2023/06/22 10:23:14;;;;;;;3.10;2.25;;;24.50;68.90;;;;;;5079270;28;20123;-32
2023/06/22 10:25:41;;;;;;;3.58;2.38;;;;;;;;;;5081531;28;20053;-31
2023/06/22 10:28:08;;;;;;;2.92;2.00;;;;;;;;;;5082835;28;20044;-35
2023/06/22 10:30:34;;;;;;;2.30;2.10;;;25.20;77.30;;;;;;5084907;28;20123;-31
2023/06/22 10:33:01;;;;;;;4.45;2.15;;;23.90;76.50;;;;;;5085259;28;20220;-31
2023/06/22 10:35:28;;;;;;;4.38;2.30;;;24.30;67.50;;;;;;5083556;28;20054;-33
2023/06/22 10:37:56;;;;;;;2.72;2.40;;;23.80;76.70;;;;;;5082467;28;20130;-32
2023/06/22 10:40:24;;;;;;;2.85;2.00;;;24.20;76.10;;;;;;5086481;28;20468;-30
2023/06/22 10:42:51;;;;;;;2.08;1.88;;;23.90;76.00;;;;;;5088703;28;20045;-31
2023/06/22 10:45:17;;;;;;;3.05;2.13;;;24.30;76.60;;;;;;5074708;28;20048;-32
2023/06/22 10:47:44;;;;;;;2.53;2.00;;;24.30;63.80;;;;;;5085721;28;20135;-33
2023/06/22 10:50:11;;;;;;;3.05;2.17;;;23.60;75.90;;;;;;5092945;28;20516;-31
2023/06/22 10:52:38;;;;;;;2.60;2.10;;;;;;;;;;5078283;28;20052;-35
2023/06/22 10:55:06;;;;;;;3.90;2.10;;;24.30;61.80;;;;;;5075077;28;20131;-31
2023/06/22 10:57:34;;;;;;;2.50;1.80;;;24.10;71.00;;;;;;5074809;28;20080;-31
2023/06/22 11:00:01;;;;;;;2.35;1.95;;;24.20;69.60;;;;;;5078513;28;20146;-33
2023/06/22 11:02:28;;;;;;;1.92;1.73;;;;;;;;;;5094782;28;20135;-31
2023/06/22 11:04:55;;;;;;;2.83;1.80;;;24.30;71.40;;;;;;5082275;28;20080;-31
2023/06/22 11:07:21;;;;;;;3.45;2.28;;;25.20;77.20;;;;;;5074357;28;20127;-31
2023/06/22 11:09:48;;;;;;;3.03;2.22;;;23.60;75.90;;;;;;5077394;28;20047;-32
2023/06/22 11:12:15;;;;;;;3.63;2.30;;;24.30;65.60;;;;;;5094198;28;20457;-32
2023/06/22 11:14:43;;;;;;;2.63;2.20;;;24.10;75.80;;;;;;5094812;28;20130;-32
2023/06/22 11:17:10;;;;;;;2.55;2.00;;;24.10;75.80;;;;;;5094488;28;20412;-31
2023/06/22 11:19:37;;;;;;;2.42;1.88;;;24.70;76.20;;;;;;5093797;28;20076;-31
2023/06/22 11:22:04;;;;;;;3.08;1.90;;;24.00;68.20;;;;;;5088403;28;20055;-34
2023/06/22 11:24:30;;;;;;;3.30;1.90;;;24.70;67.30;;;;;;5091473;28;20522;-32
2023/06/22 11:26:58;;;;;;;3.25;2.20;;;;;;;;;;5092127;28;20044;-35
2023/06/22 11:29:24;;;;;;;3.55;2.20;;;23.90;75.60;;;;;;5093645;28;20054;-31
2023/06/22 11:31:52;;;;;;;3.97;2.10;;;23.80;76.10;;;;;;5072701;28;20059;-31
2023/06/22 11:34:19;;;;;;;3.97;2.13;;;;;;;;;;5073109;28;20128;-31
2023/06/22 11:36:48;;;;;;;2.35;1.95;;;24.30;75.90;;;;;;5080738;28;20048;-31
2023/06/22 11:39:14;;;;;;;2.83;1.88;;;24.40;76.20;;;;;;5093567;28;20101;-31
2023/06/22 11:41:41;;;;;;;1.98;1.77;;;25.60;76.60;;;;;;5075626;28;20049;-31
2023/06/22 11:44:08;;;;;;;3.47;2.00;;;24.10;66.50;;;;;;5073796;28;20052;-35
2023/06/22 11:46:35;;;;;;;2.47;2.08;;;24.30;76.60;;;;;;5073932;28;20049;-31
2023/06/22 11:49:03;;;;;;;2.08;1.80;;;25.60;76.50;;;;;;5073688;28;20135;-31
2023/06/22 11:51:31;;;;;;;2.15;1.95;;;24.20;76.20;;;;;;5073894;28;20056;-33
2023/06/22 11:53:57;;;;;;;2.30;1.98;;;24.50;75.90;;;;;;5073651;28;20044;-32
2023/06/22 11:56:24;;;;;;;2.85;2.00;;;;;;;;;;5073880;28;20054;-35
2023/06/22 11:58:51;;;;;;;3.00;1.85;;;24.80;76.20;;;;;;5073626;28;20131;-31
2023/06/22 12:01:18;;;;;;;3.75;2.22;;;23.40;75.40;;;;;;5073493;28;20713;-31
2023/06/22 12:03:45;;;;;;;2.58;1.70;;;;;;;;;;5073371;28;20135;-33
2023/06/22 12:06:13;;;;;;;3.30;1.80;;;24.40;72.70;;;;;;5078110;28;20489;-31
2023/06/22 12:08:40;;;;;;;2.22;1.80;;;24.10;63.70;;;;;;5089684;28;20130;-31
2023/06/22 12:11:07;;;;;;;2.40;2.00;;;;;;;;;;5086956;28;20498;-34
2023/06/22 12:13:33;;;;;;;2.38;1.92;;;23.70;75.70;;;;;;5082656;28;20489;-31
2023/06/22 12:16:00;;;;;;;2.38;1.80;;;24.30;75.80;;;;;;5078687;28;20135;-31
2023/06/22 12:18:27;;;;;;;2.75;2.03;;;;;;;;;;5073296;28;20135;-34
2023/06/22 12:20:54;;;;;;;2.10;1.90;;;24.20;76.20;;;;;;5090036;28;20043;-31
2023/06/22 12:23:22;;;;;;;2.65;1.80;;;23.60;75.60;;;;;;5093342;28;20146;-30
2023/06/22 12:25:49;;;;;;;2.30;1.88;;;24.30;76.20;;;;;;5093402;28;20094;-30
2023/06/22 12:28:15;;;;;;;2.65;2.00;;;23.90;68.10;;;;;;5087018;28;20127;-33
2023/06/22 12:30:42;;;;;;;2.30;1.77;;;24.60;76.10;;;;;;5082116;28;20039;-32
2023/06/22 12:33:09;;;;;;;2.47;2.00;;;24.80;76.90;;;;;;5073036;28;20166;-31
2023/06/22 12:35:36;;;;;;;4.70;2.20;;;24.60;62.70;;;;;;5072850;28;20131;-33
2023/06/22 12:38:03;;;;;;;2.60;1.88;;;24.40;70.20;;;;;;5087496;28;20186;-33
2023/06/22 12:40:31;;;;;;;2.53;1.90;;;24.40;61.70;;;;;;5082822;28;20093;-33
2023/06/22 12:42:57;;;;;;;2.05;1.70;;;24.30;75.70;;;;;;5081767;28;20135;-30
2023/06/22 12:45:28;;;;;;;1.88;1.65;;;24.00;76.50;;;;;;5074759;28;20051;-31
2023/06/22 12:47:55;;;;;;;2.80;2.20;;;24.20;76.20;;;;;;5081894;28;20066;-31
2023/06/22 12:50:22;;;;;;;2.47;1.90;;;24.30;63.80;;;;;;5079729;28;20130;-34
2023/06/22 12:52:49;;;;;;;2.30;1.95;;;25.40;76.70;;;;;;5085829;28;20480;-31
2023/06/22 12:55:16;;;;;;;2.42;1.90;;;24.10;75.60;;;;;;5082800;28;20051;-30
2023/06/22 12:57:44;;;;;;;1.90;1.65;;;24.30;64.80;;;;;;5092633;28;20054;-34
2023/06/22 13:00:11;;;;;;;2.25;1.80;;;24.60;63.50;;;;;;5080487;28;20131;-33
2023/06/22 13:02:38;;;;;;;2.00;1.80;;;;;;;;;;5072169;28;20159;-35
2023/06/22 13:05:06;;;;;;;2.17;1.80;;;24.40;61.60;;;;;;5080244;28;20127;-36
2023/06/22 13:07:33;;;;;;;2.50;1.80;;;;;;;;;;5092120;28;20393;-35
2023/06/22 13:09:59;;;;;;;2.33;1.80;;;25.60;76.60;;;;;;5091587;28;20130;-31